sensor_id;sensor_type;location;lat;lon;timestamp;P1;durP1;ratioP1;P2;durP2;ratioP2
53052;SDS011;38934;52.690;6.184;2024-03-02T00:00:05;4.43;;;3.40;;
53052;SDS011;38934;52.690;6.184;2024-03-02T00:02:46;4.43;;;3.35;;
53052;SDS011;38934;52.690;6.184;2024-03-02T00:07:42;4.38;;;3.67;;
53052;SDS011;38934;52.690;6.184;2024-03-02T00:10:10;5.82;;;3.80;;
53052;SDS011;38934;52.690;6.184;2024-03-02T00:12:39;6.45;;;3.95;;
53052;SDS011;38934;52.690;6.184;2024-03-02T00:17:55;4.43;;;3.42;;
53052;SDS011;38934;52.690;6.184;2024-03-02T00:20:21;4.72;;;3.30;;
53052;SDS011;38934;52.690;6.184;2024-03-02T00:22:48;5.15;;;3.58;;
53052;SDS011;38934;52.690;6.184;2024-03-02T00:25:14;4.40;;;3.35;;
53052;SDS011;38934;52.690;6.184;2024-03-02T00:27:40;4.60;;;3.47;;
53052;SDS011;38934;52.690;6.184;2024-03-02T00:30:13;5.15;;;3.42;;
53052;SDS011;38934;52.690;6.184;2024-03-02T00:33:10;5.13;;;3.60;;
53052;SDS011;38934;52.690;6.184;2024-03-02T00:35:36;4.97;;;3.80;;
53052;SDS011;38934;52.690;6.184;2024-03-02T00:38:05;5.45;;;3.60;;
53052;SDS011;38934;52.690;6.184;2024-03-02T00:40:31;5.00;;;3.50;;
53052;SDS011;38934;52.690;6.184;2024-03-02T00:42:57;6.18;;;3.55;;
53052;SDS011;38934;52.690;6.184;2024-03-02T00:45:23;5.43;;;3.30;;
53052;SDS011;38934;52.690;6.184;2024-03-02T00:47:50;4.95;;;3.40;;
53052;SDS011;38934;52.690;6.184;2024-03-02T00:50:16;4.85;;;3.20;;
53052;SDS011;38934;52.690;6.184;2024-03-02T00:52:41;4.03;;;3.53;;
53052;SDS011;38934;52.690;6.184;2024-03-02T00:55:07;4.28;;;3.20;;
53052;SDS011;38934;52.690;6.184;2024-03-02T00:57:34;5.60;;;3.28;;
53052;SDS011;38934;52.690;6.184;2024-03-02T01:00:00;5.53;;;3.08;;
53052;SDS011;38934;52.690;6.184;2024-03-02T01:02:26;4.72;;;3.20;;
53052;SDS011;38934;52.690;6.184;2024-03-02T01:04:54;5.80;;;3.63;;
53052;SDS011;38934;52.690;6.184;2024-03-02T01:07:19;3.33;;;2.70;;
53052;SDS011;38934;52.690;6.184;2024-03-02T01:09:45;3.80;;;3.08;;
53052;SDS011;38934;52.690;6.184;2024-03-02T01:12:10;6.03;;;3.13;;
53052;SDS011;38934;52.690;6.184;2024-03-02T01:14:36;4.97;;;3.10;;
53052;SDS011;38934;52.690;6.184;2024-03-02T01:17:02;4.38;;;2.88;;
53052;SDS011;38934;52.690;6.184;2024-03-02T01:19:29;3.58;;;2.80;;
53052;SDS011;38934;52.690;6.184;2024-03-02T01:21:55;4.68;;;3.00;;
53052;SDS011;38934;52.690;6.184;2024-03-02T01:24:21;4.07;;;2.72;;
53052;SDS011;38934;52.690;6.184;2024-03-02T01:26:46;4.45;;;2.88;;
53052;SDS011;38934;52.690;6.184;2024-03-02T01:29:12;3.35;;;2.55;;
53052;SDS011;38934;52.690;6.184;2024-03-02T01:31:37;4.72;;;2.70;;
53052;SDS011;38934;52.690;6.184;2024-03-02T01:34:04;4.20;;;2.65;;
53052;SDS011;38934;52.690;6.184;2024-03-02T01:36:30;3.65;;;2.65;;
53052;SDS011;38934;52.690;6.184;2024-03-02T01:38:55;3.38;;;2.70;;
53052;SDS011;38934;52.690;6.184;2024-03-02T01:41:21;3.63;;;2.90;;
53052;SDS011;38934;52.690;6.184;2024-03-02T01:43:47;5.63;;;2.70;;
53052;SDS011;38934;52.690;6.184;2024-03-02T01:46:12;3.88;;;2.60;;
53052;SDS011;38934;52.690;6.184;2024-03-02T01:48:38;5.40;;;2.83;;
53052;SDS011;38934;52.690;6.184;2024-03-02T01:51:03;4.22;;;2.60;;
53052;SDS011;38934;52.690;6.184;2024-03-02T01:53:31;3.67;;;2.60;;
53052;SDS011;38934;52.690;6.184;2024-03-02T01:55:57;4.88;;;3.10;;
53052;SDS011;38934;52.690;6.184;2024-03-02T01:58:22;2.83;;;2.47;;
53052;SDS011;38934;52.690;6.184;2024-03-02T02:00:48;3.08;;;2.50;;
53052;SDS011;38934;52.690;6.184;2024-03-02T02:03:15;3.67;;;2.40;;
53052;SDS011;38934;52.690;6.184;2024-03-02T02:05:41;3.85;;;2.60;;
53052;SDS011;38934;52.690;6.184;2024-03-02T02:08:07;4.40;;;2.40;;
53052;SDS011;38934;52.690;6.184;2024-03-02T02:10:33;3.47;;;2.42;;
53052;SDS011;38934;52.690;6.184;2024-03-02T02:12:58;3.95;;;2.40;;
53052;SDS011;38934;52.690;6.184;2024-03-02T02:15:27;2.47;;;2.28;;
53052;SDS011;38934;52.690;6.184;2024-03-02T02:17:57;2.53;;;2.28;;
53052;SDS011;38934;52.690;6.184;2024-03-02T02:20:23;3.83;;;2.33;;
53052;SDS011;38934;52.690;6.184;2024-03-02T02:22:54;3.42;;;2.38;;
53052;SDS011;38934;52.690;6.184;2024-03-02T02:25:20;4.00;;;2.38;;
53052;SDS011;38934;52.690;6.184;2024-03-02T02:27:46;2.58;;;2.05;;
53052;SDS011;38934;52.690;6.184;2024-03-02T02:30:12;3.90;;;2.35;;
53052;SDS011;38934;52.690;6.184;2024-03-02T02:32:37;3.45;;;2.00;;
53052;SDS011;38934;52.690;6.184;2024-03-02T02:35:03;2.30;;;2.10;;
53052;SDS011;38934;52.690;6.184;2024-03-02T02:37:29;5.63;;;2.90;;
53052;SDS011;38934;52.690;6.184;2024-03-02T02:39:56;5.43;;;2.90;;
53052;SDS011;38934;52.690;6.184;2024-03-02T02:42:21;2.90;;;2.60;;
53052;SDS011;38934;52.690;6.184;2024-03-02T02:44:47;3.33;;;2.33;;
53052;SDS011;38934;52.690;6.184;2024-03-02T02:47:12;5.10;;;2.80;;
53052;SDS011;38934;52.690;6.184;2024-03-02T02:49:38;3.20;;;2.40;;
53052;SDS011;38934;52.690;6.184;2024-03-02T02:52:03;3.85;;;2.40;;
53052;SDS011;38934;52.690;6.184;2024-03-02T02:54:29;2.95;;;2.58;;
53052;SDS011;38934;52.690;6.184;2024-03-02T02:56:55;3.90;;;2.67;;
53052;SDS011;38934;52.690;6.184;2024-03-02T02:59:20;4.38;;;2.95;;
53052;SDS011;38934;52.690;6.184;2024-03-02T03:01:47;5.57;;;2.80;;
53052;SDS011;38934;52.690;6.184;2024-03-02T03:04:12;5.28;;;3.00;;
53052;SDS011;38934;52.690;6.184;2024-03-02T03:06:38;3.35;;;2.30;;
53052;SDS011;38934;52.690;6.184;2024-03-02T03:09:03;4.30;;;2.85;;
53052;SDS011;38934;52.690;6.184;2024-03-02T03:11:29;3.85;;;2.80;;
53052;SDS011;38934;52.690;6.184;2024-03-02T03:13:55;3.92;;;2.70;;
53052;SDS011;38934;52.690;6.184;2024-03-02T03:16:20;5.72;;;2.90;;
53052;SDS011;38934;52.690;6.184;2024-03-02T03:18:46;3.67;;;2.83;;
53052;SDS011;38934;52.690;6.184;2024-03-02T03:21:11;3.20;;;2.80;;
53052;SDS011;38934;52.690;6.184;2024-03-02T03:23:37;3.67;;;2.50;;
53052;SDS011;38934;52.690;6.184;2024-03-02T03:26:03;3.55;;;2.75;;
53052;SDS011;38934;52.690;6.184;2024-03-02T03:28:29;4.43;;;2.65;;
53052;SDS011;38934;52.690;6.184;2024-03-02T03:30:55;4.10;;;2.80;;
53052;SDS011;38934;52.690;6.184;2024-03-02T03:33:20;4.18;;;2.60;;
53052;SDS011;38934;52.690;6.184;2024-03-02T03:35:46;3.60;;;2.60;;
53052;SDS011;38934;52.690;6.184;2024-03-02T03:38:13;4.93;;;3.10;;
53052;SDS011;38934;52.690;6.184;2024-03-02T03:40:39;3.80;;;2.55;;
53052;SDS011;38934;52.690;6.184;2024-03-02T03:43:04;3.65;;;2.35;;
53052;SDS011;38934;52.690;6.184;2024-03-02T03:45:30;2.97;;;2.47;;
53052;SDS011;38934;52.690;6.184;2024-03-02T03:47:56;4.03;;;2.28;;
53052;SDS011;38934;52.690;6.184;2024-03-02T03:50:21;4.43;;;2.10;;
53052;SDS011;38934;52.690;6.184;2024-03-02T03:52:47;2.55;;;2.10;;
53052;SDS011;38934;52.690;6.184;2024-03-02T03:55:13;2.58;;;1.55;;
53052;SDS011;38934;52.690;6.184;2024-03-02T03:57:38;2.15;;;1.92;;
53052;SDS011;38934;52.690;6.184;2024-03-02T04:00:04;2.85;;;1.80;;
53052;SDS011;38934;52.690;6.184;2024-03-02T04:02:30;2.10;;;1.90;;
53052;SDS011;38934;52.690;6.184;2024-03-02T04:04:56;2.30;;;1.90;;
53052;SDS011;38934;52.690;6.184;2024-03-02T04:07:21;3.00;;;1.67;;
53052;SDS011;38934;52.690;6.184;2024-03-02T04:09:47;3.33;;;1.90;;
53052;SDS011;38934;52.690;6.184;2024-03-02T04:12:12;1.98;;;1.70;;
53052;SDS011;38934;52.690;6.184;2024-03-02T04:14:38;2.10;;;1.67;;
53052;SDS011;38934;52.690;6.184;2024-03-02T04:17:04;2.08;;;1.88;;
53052;SDS011;38934;52.690;6.184;2024-03-02T04:19:30;2.13;;;1.75;;
53052;SDS011;38934;52.690;6.184;2024-03-02T04:21:55;2.40;;;1.88;;
53052;SDS011;38934;52.690;6.184;2024-03-02T04:24:21;2.70;;;2.28;;
53052;SDS011;38934;52.690;6.184;2024-03-02T04:26:46;3.47;;;2.08;;
53052;SDS011;38934;52.690;6.184;2024-03-02T04:29:12;2.80;;;1.70;;
53052;SDS011;38934;52.690;6.184;2024-03-02T04:31:38;2.65;;;1.75;;
53052;SDS011;38934;52.690;6.184;2024-03-02T04:34:03;2.35;;;1.65;;
53052;SDS011;38934;52.690;6.184;2024-03-02T04:36:29;1.92;;;1.50;;
53052;SDS011;38934;52.690;6.184;2024-03-02T04:38:54;2.22;;;1.67;;
53052;SDS011;38934;52.690;6.184;2024-03-02T04:41:20;2.05;;;1.73;;
53052;SDS011;38934;52.690;6.184;2024-03-02T04:43:45;2.22;;;1.48;;
53052;SDS011;38934;52.690;6.184;2024-03-02T04:46:11;3.15;;;1.60;;
53052;SDS011;38934;52.690;6.184;2024-03-02T04:48:37;1.70;;;1.60;;
53052;SDS011;38934;52.690;6.184;2024-03-02T04:51:02;4.20;;;1.58;;
53052;SDS011;38934;52.690;6.184;2024-03-02T04:53:28;4.38;;;1.60;;
53052;SDS011;38934;52.690;6.184;2024-03-02T04:55:53;2.15;;;1.60;;
53052;SDS011;38934;52.690;6.184;2024-03-02T04:58:19;1.60;;;1.50;;
53052;SDS011;38934;52.690;6.184;2024-03-02T05:00:45;2.45;;;1.30;;
53052;SDS011;38934;52.690;6.184;2024-03-02T05:03:11;1.80;;;1.70;;
53052;SDS011;38934;52.690;6.184;2024-03-02T05:05:37;1.50;;;1.35;;
53052;SDS011;38934;52.690;6.184;2024-03-02T05:08:03;1.30;;;1.20;;
53052;SDS011;38934;52.690;6.184;2024-03-02T05:10:29;1.40;;;1.30;;
53052;SDS011;38934;52.690;6.184;2024-03-02T05:12:54;1.38;;;1.27;;
53052;SDS011;38934;52.690;6.184;2024-03-02T05:15:24;1.10;;;1.10;;
53052;SDS011;38934;52.690;6.184;2024-03-02T05:17:50;1.77;;;1.33;;
53052;SDS011;38934;52.690;6.184;2024-03-02T05:20:16;1.35;;;1.20;;
53052;SDS011;38934;52.690;6.184;2024-03-02T05:22:42;1.20;;;1.20;;
53052;SDS011;38934;52.690;6.184;2024-03-02T05:25:07;2.20;;;1.20;;
53052;SDS011;38934;52.690;6.184;2024-03-02T05:27:34;1.30;;;1.20;;
53052;SDS011;38934;52.690;6.184;2024-03-02T05:30:00;1.50;;;1.40;;
53052;SDS011;38934;52.690;6.184;2024-03-02T05:32:26;1.42;;;1.30;;
53052;SDS011;38934;52.690;6.184;2024-03-02T05:34:52;2.33;;;1.42;;
53052;SDS011;38934;52.690;6.184;2024-03-02T05:37:18;1.52;;;1.42;;
53052;SDS011;38934;52.690;6.184;2024-03-02T05:39:43;1.50;;;1.40;;
53052;SDS011;38934;52.690;6.184;2024-03-02T05:42:09;1.63;;;1.40;;
53052;SDS011;38934;52.690;6.184;2024-03-02T05:44:35;1.63;;;1.52;;
53052;SDS011;38934;52.690;6.184;2024-03-02T05:47:01;1.60;;;1.50;;
53052;SDS011;38934;52.690;6.184;2024-03-02T05:49:28;1.77;;;1.65;;
53052;SDS011;38934;52.690;6.184;2024-03-02T05:51:53;1.67;;;1.40;;
53052;SDS011;38934;52.690;6.184;2024-03-02T05:54:19;1.55;;;1.45;;
53052;SDS011;38934;52.690;6.184;2024-03-02T05:56:44;1.80;;;1.70;;
53052;SDS011;38934;52.690;6.184;2024-03-02T05:59:10;1.73;;;1.38;;
53052;SDS011;38934;52.690;6.184;2024-03-02T06:01:42;1.40;;;1.30;;
53052;SDS011;38934;52.690;6.184;2024-03-02T06:04:11;1.50;;;1.40;;
53052;SDS011;38934;52.690;6.184;2024-03-02T06:06:38;1.60;;;1.50;;
53052;SDS011;38934;52.690;6.184;2024-03-02T06:09:04;1.85;;;1.50;;
53052;SDS011;38934;52.690;6.184;2024-03-02T06:11:33;1.55;;;1.45;;
53052;SDS011;38934;52.690;6.184;2024-03-02T06:14:02;1.70;;;1.58;;
53052;SDS011;38934;52.690;6.184;2024-03-02T06:16:32;1.42;;;1.33;;
53052;SDS011;38934;52.690;6.184;2024-03-02T06:18:58;2.22;;;1.38;;
53052;SDS011;38934;52.690;6.184;2024-03-02T06:21:24;1.38;;;1.38;;
53052;SDS011;38934;52.690;6.184;2024-03-02T06:23:50;1.42;;;1.33;;
53052;SDS011;38934;52.690;6.184;2024-03-02T06:26:16;2.17;;;1.55;;
53052;SDS011;38934;52.690;6.184;2024-03-02T06:28:41;1.40;;;1.30;;
53052;SDS011;38934;52.690;6.184;2024-03-02T06:31:08;1.45;;;1.20;;
53052;SDS011;38934;52.690;6.184;2024-03-02T06:33:34;2.85;;;1.50;;
53052;SDS011;38934;52.690;6.184;2024-03-02T06:35:59;1.40;;;1.30;;
53052;SDS011;38934;52.690;6.184;2024-03-02T06:38:25;1.60;;;1.30;;
53052;SDS011;38934;52.690;6.184;2024-03-02T06:40:51;1.50;;;1.40;;
53052;SDS011;38934;52.690;6.184;2024-03-02T06:43:16;1.67;;;1.20;;
53052;SDS011;38934;52.690;6.184;2024-03-02T06:45:42;1.58;;;1.48;;
53052;SDS011;38934;52.690;6.184;2024-03-02T06:48:08;1.63;;;1.20;;
53052;SDS011;38934;52.690;6.184;2024-03-02T06:50:33;1.70;;;1.20;;
53052;SDS011;38934;52.690;6.184;2024-03-02T06:52:59;1.45;;;1.35;;
53052;SDS011;38934;52.690;6.184;2024-03-02T06:55:25;1.50;;;1.40;;
53052;SDS011;38934;52.690;6.184;2024-03-02T06:57:51;2.15;;;1.70;;
53052;SDS011;38934;52.690;6.184;2024-03-02T07:00:17;2.00;;;1.60;;
53052;SDS011;38934;52.690;6.184;2024-03-02T07:02:45;2.08;;;1.60;;
53052;SDS011;38934;52.690;6.184;2024-03-02T07:05:11;2.92;;;1.50;;
53052;SDS011;38934;52.690;6.184;2024-03-02T07:07:36;2.50;;;1.30;;
53052;SDS011;38934;52.690;6.184;2024-03-02T07:10:03;1.88;;;1.50;;
53052;SDS011;38934;52.690;6.184;2024-03-02T07:12:29;1.40;;;1.30;;
53052;SDS011;38934;52.690;6.184;2024-03-02T07:14:56;3.42;;;1.55;;
53052;SDS011;38934;52.690;6.184;2024-03-02T07:17:30;1.50;;;1.40;;
53052;SDS011;38934;52.690;6.184;2024-03-02T07:19:56;2.03;;;1.50;;
53052;SDS011;38934;52.690;6.184;2024-03-02T07:22:23;1.63;;;1.52;;
53052;SDS011;38934;52.690;6.184;2024-03-02T07:24:48;1.98;;;1.50;;
53052;SDS011;38934;52.690;6.184;2024-03-02T07:27:14;1.85;;;1.50;;
53052;SDS011;38934;52.690;6.184;2024-03-02T07:29:40;1.85;;;1.60;;
53052;SDS011;38934;52.690;6.184;2024-03-02T07:32:07;1.80;;;1.67;;
53052;SDS011;38934;52.690;6.184;2024-03-02T07:34:33;1.50;;;1.40;;
53052;SDS011;38934;52.690;6.184;2024-03-02T07:36:59;1.65;;;1.50;;
53052;SDS011;38934;52.690;6.184;2024-03-02T07:39:25;1.58;;;1.48;;
53052;SDS011;38934;52.690;6.184;2024-03-02T07:41:51;1.73;;;1.50;;
53052;SDS011;38934;52.690;6.184;2024-03-02T07:44:17;2.22;;;1.60;;
53052;SDS011;38934;52.690;6.184;2024-03-02T07:46:44;2.17;;;1.48;;
53052;SDS011;38934;52.690;6.184;2024-03-02T07:51:43;1.70;;;1.60;;
53052;SDS011;38934;52.690;6.184;2024-03-02T07:54:09;3.38;;;1.50;;
53052;SDS011;38934;52.690;6.184;2024-03-02T07:56:35;1.40;;;1.30;;
53052;SDS011;38934;52.690;6.184;2024-03-02T07:59:01;2.10;;;1.50;;
53052;SDS011;38934;52.690;6.184;2024-03-02T08:01:28;2.33;;;1.42;;
53052;SDS011;38934;52.690;6.184;2024-03-02T08:03:55;1.58;;;1.48;;
53052;SDS011;38934;52.690;6.184;2024-03-02T08:06:23;1.70;;;1.50;;
53052;SDS011;38934;52.690;6.184;2024-03-02T08:08:52;2.42;;;1.80;;
53052;SDS011;38934;52.690;6.184;2024-03-02T08:11:19;1.92;;;1.60;;
53052;SDS011;38934;52.690;6.184;2024-03-02T08:13:45;1.70;;;1.60;;
53052;SDS011;38934;52.690;6.184;2024-03-02T08:16:10;1.90;;;1.58;;
53052;SDS011;38934;52.690;6.184;2024-03-02T08:18:36;3.30;;;1.70;;
53052;SDS011;38934;52.690;6.184;2024-03-02T08:21:02;1.98;;;1.50;;
53052;SDS011;38934;52.690;6.184;2024-03-02T08:23:27;1.73;;;1.48;;
53052;SDS011;38934;52.690;6.184;2024-03-02T08:25:53;2.20;;;1.60;;
53052;SDS011;38934;52.690;6.184;2024-03-02T08:28:19;2.65;;;1.80;;
53052;SDS011;38934;52.690;6.184;2024-03-02T08:30:45;2.05;;;1.50;;
53052;SDS011;38934;52.690;6.184;2024-03-02T08:33:10;1.80;;;1.60;;
53052;SDS011;38934;52.690;6.184;2024-03-02T08:35:36;2.00;;;1.80;;
53052;SDS011;38934;52.690;6.184;2024-03-02T08:38:02;3.00;;;1.70;;
53052;SDS011;38934;52.690;6.184;2024-03-02T08:40:28;1.70;;;1.60;;
53052;SDS011;38934;52.690;6.184;2024-03-02T08:42:54;2.83;;;1.48;;
53052;SDS011;38934;52.690;6.184;2024-03-02T08:45:20;4.53;;;1.70;;
53052;SDS011;38934;52.690;6.184;2024-03-02T08:47:45;2.20;;;1.50;;
53052;SDS011;38934;52.690;6.184;2024-03-02T08:50:12;1.58;;;1.45;;
53052;SDS011;38934;52.690;6.184;2024-03-02T08:52:37;1.65;;;1.55;;
53052;SDS011;38934;52.690;6.184;2024-03-02T08:55:04;1.58;;;1.42;;
53052;SDS011;38934;52.690;6.184;2024-03-02T08:57:30;2.95;;;1.30;;
53052;SDS011;38934;52.690;6.184;2024-03-02T08:59:56;3.67;;;1.48;;
53052;SDS011;38934;52.690;6.184;2024-03-02T09:02:22;1.90;;;1.38;;
53052;SDS011;38934;52.690;6.184;2024-03-02T09:04:48;2.60;;;1.40;;
53052;SDS011;38934;52.690;6.184;2024-03-02T09:07:14;3.20;;;1.50;;
53052;SDS011;38934;52.690;6.184;2024-03-02T09:09:40;1.80;;;1.30;;
53052;SDS011;38934;52.690;6.184;2024-03-02T09:12:06;1.50;;;1.40;;
53052;SDS011;38934;52.690;6.184;2024-03-02T09:14:32;3.08;;;1.45;;
53052;SDS011;38934;52.690;6.184;2024-03-02T09:16:58;2.00;;;1.58;;
53052;SDS011;38934;52.690;6.184;2024-03-02T09:19:23;2.33;;;1.80;;
53052;SDS011;38934;52.690;6.184;2024-03-02T09:21:49;2.35;;;1.55;;
53052;SDS011;38934;52.690;6.184;2024-03-02T09:24:15;3.95;;;1.85;;
53052;SDS011;38934;52.690;6.184;2024-03-02T09:26:41;2.80;;;1.30;;
53052;SDS011;38934;52.690;6.184;2024-03-02T09:29:06;2.95;;;1.60;;
53052;SDS011;38934;52.690;6.184;2024-03-02T09:31:32;2.70;;;1.45;;
53052;SDS011;38934;52.690;6.184;2024-03-02T09:33:57;1.50;;;1.40;;
53052;SDS011;38934;52.690;6.184;2024-03-02T09:36:23;3.42;;;1.70;;
53052;SDS011;38934;52.690;6.184;2024-03-02T09:38:49;1.48;;;1.30;;
53052;SDS011;38934;52.690;6.184;2024-03-02T09:41:15;3.38;;;1.30;;
53052;SDS011;38934;52.690;6.184;2024-03-02T09:43:40;3.22;;;1.50;;
53052;SDS011;38934;52.690;6.184;2024-03-02T09:46:07;5.40;;;1.45;;
53052;SDS011;38934;52.690;6.184;2024-03-02T09:48:34;3.53;;;1.52;;
53052;SDS011;38934;52.690;6.184;2024-03-02T09:51:00;3.42;;;1.35;;
53052;SDS011;38934;52.690;6.184;2024-03-02T09:53:31;2.17;;;1.13;;
53052;SDS011;38934;52.690;6.184;2024-03-02T09:56:01;2.20;;;1.15;;
53052;SDS011;38934;52.690;6.184;2024-03-02T09:58:27;3.08;;;1.20;;
53052;SDS011;38934;52.690;6.184;2024-03-02T10:00:53;4.07;;;1.38;;
53052;SDS011;38934;52.690;6.184;2024-03-02T10:03:19;2.15;;;1.20;;
53052;SDS011;38934;52.690;6.184;2024-03-02T10:05:46;3.63;;;1.50;;
53052;SDS011;38934;52.690;6.184;2024-03-02T10:08:11;2.10;;;1.40;;
53052;SDS011;38934;52.690;6.184;2024-03-02T10:10:40;3.05;;;1.35;;
53052;SDS011;38934;52.690;6.184;2024-03-02T10:13:08;2.78;;;1.45;;
53052;SDS011;38934;52.690;6.184;2024-03-02T10:15:35;4.22;;;1.50;;
53052;SDS011;38934;52.690;6.184;2024-03-02T10:18:12;3.72;;;1.55;;
53052;SDS011;38934;52.690;6.184;2024-03-02T10:20:38;4.03;;;1.40;;
53052;SDS011;38934;52.690;6.184;2024-03-02T10:25:37;2.15;;;1.30;;
53052;SDS011;38934;52.690;6.184;2024-03-02T10:28:03;3.13;;;1.30;;
53052;SDS011;38934;52.690;6.184;2024-03-02T10:30:32;3.25;;;1.40;;
53052;SDS011;38934;52.690;6.184;2024-03-02T10:32:59;3.47;;;1.42;;
53052;SDS011;38934;52.690;6.184;2024-03-02T10:35:28;5.70;;;1.80;;
53052;SDS011;38934;52.690;6.184;2024-03-02T10:37:58;2.17;;;1.48;;
53052;SDS011;38934;52.690;6.184;2024-03-02T10:40:24;4.50;;;1.30;;
53052;SDS011;38934;52.690;6.184;2024-03-02T10:42:52;3.25;;;1.20;;
53052;SDS011;38934;52.690;6.184;2024-03-02T10:45:19;2.13;;;1.30;;
53052;SDS011;38934;52.690;6.184;2024-03-02T10:47:47;3.55;;;1.40;;
53052;SDS011;38934;52.690;6.184;2024-03-02T10:50:13;2.17;;;1.30;;
53052;SDS011;38934;52.690;6.184;2024-03-02T10:52:39;3.70;;;1.63;;
53052;SDS011;38934;52.690;6.184;2024-03-02T10:55:09;2.83;;;1.35;;
53052;SDS011;38934;52.690;6.184;2024-03-02T10:57:48;5.65;;;1.50;;
53052;SDS011;38934;52.690;6.184;2024-03-02T11:00:21;2.10;;;1.20;;
53052;SDS011;38934;52.690;6.184;2024-03-02T11:02:53;4.65;;;1.40;;
53052;SDS011;38934;52.690;6.184;2024-03-02T11:05:28;3.20;;;1.23;;
53052;SDS011;38934;52.690;6.184;2024-03-02T11:07:57;1.52;;;1.30;;
53052;SDS011;38934;52.690;6.184;2024-03-02T11:10:42;3.63;;;1.40;;
53052;SDS011;38934;52.690;6.184;2024-03-02T11:13:16;2.47;;;1.33;;
53052;SDS011;38934;52.690;6.184;2024-03-02T11:16:12;2.55;;;1.30;;
53052;SDS011;38934;52.690;6.184;2024-03-02T11:18:48;2.47;;;1.38;;
53052;SDS011;38934;52.690;6.184;2024-03-02T11:21:15;2.08;;;1.27;;
53052;SDS011;38934;52.690;6.184;2024-03-02T11:23:41;3.08;;;1.27;;
53052;SDS011;38934;52.690;6.184;2024-03-02T11:26:17;3.13;;;1.17;;
53052;SDS011;38934;52.690;6.184;2024-03-02T11:28:47;3.78;;;1.30;;
53052;SDS011;38934;52.690;6.184;2024-03-02T11:31:13;2.22;;;1.08;;
53052;SDS011;38934;52.690;6.184;2024-03-02T11:33:39;7.32;;;1.80;;
53052;SDS011;38934;52.690;6.184;2024-03-02T11:36:06;2.70;;;1.40;;
53052;SDS011;38934;52.690;6.184;2024-03-02T11:38:32;2.45;;;1.30;;
53052;SDS011;38934;52.690;6.184;2024-03-02T11:41:02;2.83;;;1.30;;
53052;SDS011;38934;52.690;6.184;2024-03-02T11:43:30;2.17;;;1.40;;
53052;SDS011;38934;52.690;6.184;2024-03-02T11:45:59;4.18;;;1.40;;
53052;SDS011;38934;52.690;6.184;2024-03-02T11:48:26;3.30;;;1.20;;
53052;SDS011;38934;52.690;6.184;2024-03-02T11:50:52;2.35;;;1.40;;
53052;SDS011;38934;52.690;6.184;2024-03-02T11:53:20;1.35;;;1.10;;
53052;SDS011;38934;52.690;6.184;2024-03-02T11:55:46;1.77;;;1.20;;
53052;SDS011;38934;52.690;6.184;2024-03-02T11:58:12;3.88;;;1.38;;
53052;SDS011;38934;52.690;6.184;2024-03-02T12:00:42;4.15;;;1.50;;
53052;SDS011;38934;52.690;6.184;2024-03-02T12:03:09;2.42;;;1.23;;
53052;SDS011;38934;52.690;6.184;2024-03-02T12:05:38;2.55;;;1.35;;
53052;SDS011;38934;52.690;6.184;2024-03-02T12:08:05;1.27;;;1.17;;
53052;SDS011;38934;52.690;6.184;2024-03-02T12:10:31;2.88;;;1.15;;
53052;SDS011;38934;52.690;6.184;2024-03-02T12:13:01;3.58;;;1.45;;
53052;SDS011;38934;52.690;6.184;2024-03-02T12:15:29;2.67;;;1.30;;
53052;SDS011;38934;52.690;6.184;2024-03-02T12:17:57;2.97;;;1.60;;
53052;SDS011;38934;52.690;6.184;2024-03-02T12:20:24;3.25;;;1.50;;
53052;SDS011;38934;52.690;6.184;2024-03-02T12:22:51;3.92;;;1.55;;
53052;SDS011;38934;52.690;6.184;2024-03-02T12:25:23;4.32;;;1.45;;
53052;SDS011;38934;52.690;6.184;2024-03-02T12:27:50;3.55;;;1.30;;
53052;SDS011;38934;52.690;6.184;2024-03-02T12:30:19;5.75;;;1.58;;
53052;SDS011;38934;52.690;6.184;2024-03-02T12:32:45;4.45;;;1.38;;
53052;SDS011;38934;52.690;6.184;2024-03-02T12:35:11;3.58;;;1.60;;
53052;SDS011;38934;52.690;6.184;2024-03-02T12:37:50;3.90;;;1.65;;
53052;SDS011;38934;52.690;6.184;2024-03-02T12:40:17;3.67;;;1.50;;
53052;SDS011;38934;52.690;6.184;2024-03-02T12:42:44;2.65;;;1.38;;
53052;SDS011;38934;52.690;6.184;2024-03-02T12:45:11;2.58;;;1.40;;
53052;SDS011;38934;52.690;6.184;2024-03-02T12:47:39;2.28;;;1.33;;
53052;SDS011;38934;52.690;6.184;2024-03-02T12:50:06;3.58;;;1.45;;
53052;SDS011;38934;52.690;6.184;2024-03-02T12:52:32;2.88;;;1.30;;
53052;SDS011;38934;52.690;6.184;2024-03-02T12:55:02;4.30;;;1.55;;
53052;SDS011;38934;52.690;6.184;2024-03-02T12:57:30;2.78;;;1.50;;
53052;SDS011;38934;52.690;6.184;2024-03-02T13:00:00;3.80;;;1.38;;
53052;SDS011;38934;52.690;6.184;2024-03-02T13:02:36;2.08;;;1.40;;
53052;SDS011;38934;52.690;6.184;2024-03-02T13:05:06;3.22;;;1.25;;
53052;SDS011;38934;52.690;6.184;2024-03-02T13:07:36;3.83;;;1.58;;
53052;SDS011;38934;52.690;6.184;2024-03-02T13:10:02;4.00;;;1.45;;
53052;SDS011;38934;52.690;6.184;2024-03-02T13:12:28;2.45;;;1.40;;
53052;SDS011;38934;52.690;6.184;2024-03-02T13:14:55;2.33;;;1.40;;
53052;SDS011;38934;52.690;6.184;2024-03-02T13:17:23;2.13;;;1.40;;
53052;SDS011;38934;52.690;6.184;2024-03-02T13:19:52;2.38;;;1.65;;
53052;SDS011;38934;52.690;6.184;2024-03-02T13:24:48;4.03;;;2.15;;
53052;SDS011;38934;52.690;6.184;2024-03-02T13:27:14;2.10;;;1.60;;
53052;SDS011;38934;52.690;6.184;2024-03-02T13:29:41;2.08;;;1.50;;
53052;SDS011;38934;52.690;6.184;2024-03-02T13:32:07;4.32;;;1.63;;
53052;SDS011;38934;52.690;6.184;2024-03-02T13:34:34;4.25;;;1.60;;
53052;SDS011;38934;52.690;6.184;2024-03-02T13:37:00;7.15;;;1.80;;
53052;SDS011;38934;52.690;6.184;2024-03-02T13:39:27;3.88;;;1.52;;
53052;SDS011;38934;52.690;6.184;2024-03-02T13:41:52;2.83;;;1.50;;
53052;SDS011;38934;52.690;6.184;2024-03-02T13:44:26;3.28;;;1.90;;
53052;SDS011;38934;52.690;6.184;2024-03-02T13:46:52;3.45;;;1.83;;
53052;SDS011;38934;52.690;6.184;2024-03-02T13:49:18;2.85;;;1.90;;
53052;SDS011;38934;52.690;6.184;2024-03-02T13:51:43;3.63;;;1.73;;
53052;SDS011;38934;52.690;6.184;2024-03-02T13:54:10;3.58;;;1.95;;
53052;SDS011;38934;52.690;6.184;2024-03-02T13:56:36;2.72;;;1.70;;
53052;SDS011;38934;52.690;6.184;2024-03-02T13:59:04;1.95;;;1.67;;
53052;SDS011;38934;52.690;6.184;2024-03-02T14:01:31;3.85;;;1.90;;
53052;SDS011;38934;52.690;6.184;2024-03-02T14:03:57;3.97;;;2.30;;
53052;SDS011;38934;52.690;6.184;2024-03-02T14:06:23;3.42;;;2.10;;
53052;SDS011;38934;52.690;6.184;2024-03-02T14:08:51;3.58;;;2.10;;
53052;SDS011;38934;52.690;6.184;2024-03-02T14:11:17;3.50;;;1.98;;
53052;SDS011;38934;52.690;6.184;2024-03-02T14:13:44;3.55;;;2.20;;
53052;SDS011;38934;52.690;6.184;2024-03-02T14:16:14;3.08;;;2.20;;
53052;SDS011;38934;52.690;6.184;2024-03-02T14:18:40;3.80;;;2.20;;
53052;SDS011;38934;52.690;6.184;2024-03-02T14:21:06;4.68;;;2.20;;
53052;SDS011;38934;52.690;6.184;2024-03-02T14:23:32;4.30;;;2.40;;
53052;SDS011;38934;52.690;6.184;2024-03-02T14:25:58;3.90;;;2.50;;
53052;SDS011;38934;52.690;6.184;2024-03-02T14:28:24;3.33;;;2.60;;
53052;SDS011;38934;52.690;6.184;2024-03-02T14:30:50;5.35;;;2.67;;
53052;SDS011;38934;52.690;6.184;2024-03-02T14:33:15;5.97;;;3.15;;
53052;SDS011;38934;52.690;6.184;2024-03-02T14:35:41;4.13;;;2.67;;
53052;SDS011;38934;52.690;6.184;2024-03-02T14:38:07;5.22;;;3.00;;
53052;SDS011;38934;52.690;6.184;2024-03-02T14:40:33;5.20;;;3.03;;
53052;SDS011;38934;52.690;6.184;2024-03-02T14:42:58;5.00;;;3.20;;
53052;SDS011;38934;52.690;6.184;2024-03-02T14:45:24;5.28;;;2.95;;
53052;SDS011;38934;52.690;6.184;2024-03-02T14:47:49;4.60;;;3.20;;
53052;SDS011;38934;52.690;6.184;2024-03-02T14:50:16;5.03;;;3.58;;
53052;SDS011;38934;52.690;6.184;2024-03-02T14:52:43;4.35;;;3.20;;
53052;SDS011;38934;52.690;6.184;2024-03-02T14:55:10;5.80;;;3.45;;
53052;SDS011;38934;52.690;6.184;2024-03-02T14:57:36;4.72;;;3.53;;